createdAt,value
2023-02-25T00:02:02.792Z,2.67
2023-02-25T00:04:32.359Z,3.15
2023-02-25T00:07:02.524Z,2.58
2023-02-25T00:09:31.396Z,2.47
2023-02-25T00:12:00.937Z,2.58
2023-02-25T00:14:29.908Z,2.90
2023-02-25T00:16:58.210Z,2.90
2023-02-25T00:19:27.504Z,3.50
2023-02-25T00:21:55.868Z,3.00
2023-02-25T00:24:25.506Z,2.47
2023-02-25T00:26:53.683Z,3.28
2023-02-25T00:29:22.216Z,2.92
2023-02-25T00:31:51.081Z,2.58
2023-02-25T00:34:19.558Z,2.78
2023-02-25T00:36:48.253Z,3.22
2023-02-25T00:39:16.828Z,2.65
2023-02-25T00:41:46.531Z,3.25
2023-02-25T00:44:14.857Z,3.00
2023-02-25T00:46:43.117Z,2.80
2023-02-25T00:49:16.691Z,2.40
2023-02-25T00:51:49.489Z,3.22
2023-02-25T00:54:17.889Z,2.92
2023-02-25T00:56:47.458Z,3.10
2023-02-25T00:59:15.665Z,3.10
2023-02-25T01:01:44.305Z,3.50
2023-02-25T01:04:12.604Z,3.00
2023-02-25T01:06:41.149Z,2.92
2023-02-25T01:09:13.850Z,3.05
2023-02-25T01:11:45.849Z,2.88
2023-02-25T01:14:18.731Z,2.47
2023-02-25T01:16:48.446Z,2.30
2023-02-25T01:19:22.650Z,2.42
2023-02-25T01:21:53.509Z,2.55
2023-02-25T01:24:24.482Z,3.15
2023-02-25T01:26:55.022Z,1.75
2023-02-25T01:29:27.736Z,2.50
2023-02-25T01:31:58.540Z,1.45
2023-02-25T01:34:28.808Z,2.65
2023-02-25T01:36:57.626Z,2.63
2023-02-25T01:39:27.608Z,2.70
2023-02-25T01:41:57.524Z,2.50
2023-02-25T01:44:32.317Z,2.55
2023-02-25T01:47:01.613Z,2.35
2023-02-25T01:49:34.299Z,2.22
2023-02-25T01:52:08.942Z,3.03
2023-02-25T01:54:38.018Z,2.42
2023-02-25T01:57:12.327Z,2.15
2023-02-25T01:59:44.882Z,2.72
2023-02-25T02:02:19.450Z,3.03
2023-02-25T02:04:50.230Z,2.28
2023-02-25T02:07:18.944Z,2.78
2023-02-25T02:09:56.338Z,3.70
2023-02-25T02:12:27.570Z,3.25
2023-02-25T02:14:59.936Z,2.67
2023-02-25T02:17:34.915Z,2.95
2023-02-25T02:20:14.159Z,2.22
2023-02-25T02:23:03.984Z,3.72
2023-02-25T02:26:18.379Z,2.08
2023-02-25T02:29:30.460Z,3.17
2023-02-25T02:32:11.375Z,2.58
2023-02-25T02:34:51.495Z,2.70
2023-02-25T02:37:38.500Z,2.83
2023-02-25T02:40:24.166Z,3.20
2023-02-25T02:43:06.113Z,2.47
2023-02-25T02:45:42.509Z,2.65
2023-02-25T02:48:16.880Z,2.78
2023-02-25T02:50:49.480Z,2.20
2023-02-25T02:53:23.825Z,2.17
2023-02-25T02:55:57.745Z,2.58
2023-02-25T02:58:31.105Z,2.63
2023-02-25T03:01:05.682Z,2.47
2023-02-25T03:03:41.702Z,2.72
2023-02-25T03:06:17.658Z,2.35
2023-02-25T03:08:50.498Z,2.50
2023-02-25T03:11:18.844Z,2.60
2023-02-25T03:13:47.455Z,2.72
2023-02-25T03:16:22.378Z,2.88
2023-02-25T03:18:57.706Z,2.13
2023-02-25T03:21:33.060Z,2.15
2023-02-25T03:24:05.812Z,2.22
2023-02-25T03:26:36.476Z,1.98
2023-02-25T03:29:05.415Z,2.33
2023-02-25T03:31:42.312Z,2.33
2023-02-25T03:34:17.796Z,2.00
2023-02-25T03:36:50.876Z,2.05
2023-02-25T03:39:26.816Z,2.47
2023-02-25T03:41:59.521Z,2.50
2023-02-25T03:44:32.932Z,2.60
2023-02-25T03:47:02.471Z,2.53
2023-02-25T03:49:36.365Z,2.42
2023-02-25T03:52:13.714Z,2.20
2023-02-25T03:54:41.970Z,2.50
2023-02-25T03:57:10.654Z,2.00
2023-02-25T03:59:38.864Z,2.97
2023-02-25T04:02:10.738Z,2.83
2023-02-25T04:04:40.440Z,2.42
2023-02-25T04:07:08.709Z,2.75
2023-02-25T04:09:36.979Z,2.60
2023-02-25T04:12:08.211Z,3.10
2023-02-25T04:14:36.446Z,3.03
2023-02-25T04:17:05.979Z,3.45
2023-02-25T04:19:34.157Z,2.53
2023-02-25T04:22:05.855Z,2.42
2023-02-25T04:24:34.117Z,2.42
2023-02-25T04:27:02.611Z,3.03
2023-02-25T04:29:31.474Z,2.35
2023-02-25T04:32:00.267Z,2.53
2023-02-25T04:34:28.693Z,3.30
2023-02-25T04:36:56.896Z,2.72
2023-02-25T04:39:26.523Z,3.10
2023-02-25T04:41:55.006Z,2.88
2023-02-25T04:44:23.304Z,2.88
2023-02-25T04:46:52.270Z,2.88
2023-02-25T04:49:23.225Z,2.75
2023-02-25T04:51:52.733Z,3.28
2023-02-25T04:54:21.273Z,2.88
2023-02-25T04:56:50.925Z,2.30
2023-02-25T04:59:19.161Z,3.08
2023-02-25T05:01:49.554Z,2.50
2023-02-25T05:04:19.974Z,2.40
2023-02-25T05:06:48.174Z,2.63
2023-02-25T05:09:18.739Z,3.17
2023-02-25T05:11:46.975Z,2.65
2023-02-25T05:14:16.667Z,2.30
2023-02-25T05:16:45.538Z,3.30
2023-02-25T05:19:22.812Z,2.72
2023-02-25T05:21:52.104Z,2.40
2023-02-25T05:24:23.739Z,2.85
2023-02-25T05:26:52.954Z,2.60
2023-02-25T05:29:22.614Z,3.40
2023-02-25T05:31:51.821Z,2.33
2023-02-25T05:34:22.748Z,2.75
2023-02-25T05:36:50.962Z,2.67
2023-02-25T05:39:19.205Z,2.85
2023-02-25T05:41:47.419Z,2.63
2023-02-25T05:44:16.471Z,3.40
2023-02-25T05:46:46.401Z,2.90
2023-02-25T05:49:14.658Z,2.85
2023-02-25T05:51:42.870Z,3.10
2023-02-25T05:54:11.176Z,3.63
2023-02-25T05:56:39.380Z,3.25
2023-02-25T05:59:07.612Z,3.40
2023-02-25T06:01:35.818Z,3.03
2023-02-25T06:04:08.219Z,3.42
2023-02-25T06:06:36.541Z,3.08
2023-02-25T06:09:06.707Z,3.15
2023-02-25T06:11:35.046Z,2.70
2023-02-25T06:14:03.545Z,2.90
2023-02-25T06:16:32.662Z,3.10
2023-02-25T06:19:02.637Z,3.40
2023-02-25T06:21:32.527Z,3.50
2023-02-25T06:24:01.448Z,2.85
2023-02-25T06:26:30.403Z,3.20
2023-02-25T06:28:58.978Z,2.20
2023-02-25T06:31:27.533Z,3.08
2023-02-25T06:33:56.105Z,3.25
2023-02-25T06:36:24.805Z,3.05
2023-02-25T06:38:54.790Z,2.78
2023-02-25T06:41:24.142Z,3.10
2023-02-25T06:43:53.160Z,2.95
2023-02-25T06:46:24.721Z,3.13
2023-02-25T06:48:54.175Z,3.05
2023-02-25T06:51:22.894Z,2.85
2023-02-25T06:53:53.012Z,2.90
2023-02-25T06:56:23.415Z,3.28
2023-02-25T06:58:53.400Z,3.95
2023-02-25T07:01:22.189Z,2.78
2023-02-25T07:03:50.882Z,3.58
2023-02-25T07:06:20.517Z,3.60
2023-02-25T07:08:49.285Z,3.47
2023-02-25T07:11:31.256Z,3.20
2023-02-25T07:14:00.300Z,2.97
2023-02-25T07:16:29.999Z,2.92
2023-02-25T07:18:59.239Z,4.05
2023-02-25T07:21:30.970Z,2.75
2023-02-25T07:23:59.938Z,2.60
2023-02-25T07:26:29.790Z,2.63
2023-02-25T07:28:59.566Z,3.15
2023-02-25T07:31:29.764Z,2.92
2023-02-25T07:34:03.401Z,2.70
2023-02-25T07:36:33.179Z,2.63
2023-02-25T07:39:04.541Z,2.70
2023-02-25T07:41:34.648Z,2.13
2023-02-25T07:44:05.373Z,2.35
2023-02-25T07:46:34.449Z,2.72
2023-02-25T07:49:03.018Z,2.15
2023-02-25T07:51:32.066Z,2.70
2023-02-25T07:54:00.675Z,1.92
2023-02-25T07:56:33.264Z,2.17
2023-02-25T07:59:01.643Z,2.22
2023-02-25T08:01:35.236Z,2.10
2023-02-25T08:04:06.910Z,2.85
2023-02-25T08:06:38.697Z,2.20
2023-02-25T08:09:08.717Z,2.38
2023-02-25T08:11:38.424Z,2.50
2023-02-25T08:14:07.658Z,2.38
2023-02-25T08:16:36.354Z,2.72
2023-02-25T08:19:08.603Z,2.55
2023-02-25T08:21:37.413Z,2.63
2023-02-25T08:24:09.972Z,3.00
2023-02-25T08:26:41.340Z,3.03
2023-02-25T08:29:09.594Z,3.05
2023-02-25T08:31:38.405Z,2.60
2023-02-25T08:34:07.557Z,2.83
2023-02-25T08:36:37.164Z,2.75
2023-02-25T08:39:09.334Z,3.08
2023-02-25T08:41:39.473Z,3.08
2023-02-25T08:44:08.349Z,2.63
2023-02-25T08:46:37.867Z,3.15
2023-02-25T08:49:09.142Z,3.15
2023-02-25T08:51:38.739Z,3.65
2023-02-25T08:54:09.692Z,3.47
2023-02-25T08:56:48.147Z,3.45
2023-02-25T08:59:19.970Z,3.70
2023-02-25T09:01:49.156Z,3.78
2023-02-25T09:04:23.212Z,3.28
2023-02-25T09:06:54.083Z,3.15
2023-02-25T09:09:23.753Z,4.22
2023-02-25T09:11:54.450Z,3.38
2023-02-25T09:14:23.500Z,4.45
2023-02-25T09:16:53.192Z,3.22
2023-02-25T09:19:21.502Z,3.50
2023-02-25T09:21:50.894Z,4.13
2023-02-25T09:24:19.446Z,2.85
2023-02-25T09:26:48.178Z,3.55
2023-02-25T09:29:20.755Z,3.08
2023-02-25T09:31:49.257Z,3.60
2023-02-25T09:34:20.373Z,3.25
2023-02-25T09:36:48.831Z,2.42
2023-02-25T09:39:19.026Z,2.38
2023-02-25T09:41:55.585Z,2.42
2023-02-25T09:44:31.367Z,2.50
2023-02-25T09:47:04.989Z,2.25
2023-02-25T09:49:37.894Z,2.25
2023-02-25T09:52:18.848Z,2.10
2023-02-25T09:54:49.677Z,2.92
2023-02-25T09:57:23.337Z,4.20
2023-02-25T09:59:54.570Z,4.78
2023-02-25T10:02:34.183Z,3.58
2023-02-25T10:05:25.241Z,3.35
2023-02-25T10:08:16.145Z,3.00
2023-02-25T10:10:53.870Z,2.92
2023-02-25T10:13:35.945Z,2.80
2023-02-25T10:16:24.624Z,2.65
2023-02-25T10:19:09.896Z,3.22
2023-02-25T10:22:00.880Z,3.55
2023-02-25T10:24:35.894Z,2.75
2023-02-25T10:27:19.222Z,2.30
2023-02-25T10:29:50.860Z,2.25
2023-02-25T10:32:24.997Z,2.20
2023-02-25T10:34:55.445Z,2.10
2023-02-25T10:37:33.071Z,2.03
2023-02-25T10:40:05.043Z,2.25
2023-02-25T10:42:33.330Z,2.15
2023-02-25T10:45:09.219Z,2.03
2023-02-25T10:47:42.622Z,2.33
2023-02-25T10:50:20.043Z,1.50
2023-02-25T10:53:02.265Z,1.20
2023-02-25T10:55:51.873Z,1.30
2023-02-25T10:58:37.043Z,1.20
2023-02-25T11:01:15.235Z,1.27
2023-02-25T11:03:55.993Z,1.75
2023-02-25T11:06:29.090Z,1.45
2023-02-25T11:08:59.488Z,1.42
2023-02-25T11:11:31.844Z,1.27
2023-02-25T11:14:08.011Z,1.50
2023-02-25T11:16:39.464Z,1.30
2023-02-25T11:19:18.233Z,1.98
2023-02-25T11:21:48.079Z,1.70
2023-02-25T11:24:26.127Z,1.67
2023-02-25T11:26:54.525Z,1.45
2023-02-25T11:29:28.684Z,1.65
2023-02-25T11:32:02.117Z,1.45
2023-02-25T11:34:33.728Z,1.40
2023-02-25T11:37:30.690Z,1.63
2023-02-25T11:39:59.248Z,1.58
2023-02-25T11:42:30.189Z,1.40
2023-02-25T11:45:03.802Z,1.80
2023-02-25T11:47:35.056Z,1.50
2023-02-25T11:50:27.701Z,1.35
2023-02-25T11:53:06.029Z,1.42
2023-02-25T11:55:54.426Z,2.03
2023-02-25T11:58:34.972Z,1.83
2023-02-25T12:01:11.012Z,1.63
2023-02-25T12:04:19.713Z,1.60
2023-02-25T12:07:26.879Z,1.65
2023-02-25T12:11:09.868Z,1.40
2023-02-25T12:14:37.289Z,1.55
2023-02-25T12:18:25.814Z,1.25
2023-02-25T12:21:46.075Z,1.52
2023-02-25T12:24:47.816Z,1.20
2023-02-25T12:28:11.756Z,1.40
2023-02-25T12:31:10.563Z,1.35
2023-02-25T12:34:11.776Z,1.63
2023-02-25T12:36:59.582Z,1.67
2023-02-25T12:39:53.874Z,1.48
2023-02-25T12:42:40.112Z,1.38
2023-02-25T12:45:41.477Z,1.50
2023-02-25T12:48:56.244Z,1.77
2023-02-25T12:51:59.650Z,1.70
2023-02-25T12:55:12.118Z,1.50
2023-02-25T12:57:52.885Z,1.42
2023-02-25T13:01:02.423Z,1.90
2023-02-25T13:03:48.706Z,1.45
2023-02-25T13:06:54.284Z,1.70
2023-02-25T13:09:55.508Z,1.50
2023-02-25T13:12:45.529Z,1.50
2023-02-25T13:15:20.956Z,1.95
2023-02-25T13:18:17.982Z,1.33
2023-02-25T13:21:04.386Z,1.65
2023-02-25T13:23:58.116Z,2.00
2023-02-25T13:27:14.225Z,1.67
2023-02-25T13:30:14.948Z,1.30
2023-02-25T13:32:53.378Z,1.52
2023-02-25T13:35:34.467Z,1.40
2023-02-25T13:38:30.988Z,2.35
2023-02-25T13:41:29.362Z,1.70
2023-02-25T13:44:31.659Z,2.00
2023-02-25T13:47:34.262Z,1.55
2023-02-25T13:50:32.934Z,1.83
2023-02-25T13:53:21.320Z,1.98
2023-02-25T13:56:37.138Z,2.10
2023-02-25T13:59:44.808Z,1.77
2023-02-25T14:02:52.210Z,2.00
2023-02-25T14:05:42.121Z,1.67
2023-02-25T14:08:36.213Z,1.85
2023-02-25T14:11:24.782Z,1.95
2023-02-25T14:14:13.286Z,2.03
2023-02-25T14:17:06.280Z,1.70
2023-02-25T14:20:13.006Z,1.95
2023-02-25T14:22:46.792Z,1.60
2023-02-25T14:25:50.430Z,1.58
2023-02-25T14:28:31.861Z,1.65
2023-02-25T14:31:17.794Z,1.60
2023-02-25T14:34:09.983Z,3.08
2023-02-25T14:37:11.273Z,1.70
2023-02-25T14:39:53.451Z,1.67
2023-02-25T14:42:40.087Z,1.80
2023-02-25T14:45:24.456Z,2.47
2023-02-25T14:48:00.465Z,1.92
2023-02-25T14:50:32.980Z,2.10
2023-02-25T14:53:42.921Z,1.80
2023-02-25T14:56:34.744Z,1.98
2023-02-25T14:59:44.545Z,2.15
2023-02-25T15:02:38.718Z,2.22
2023-02-25T15:05:47.161Z,2.13
2023-02-25T15:08:43.646Z,1.92
2023-02-25T15:11:57.938Z,2.20
2023-02-25T15:15:25.603Z,2.20
2023-02-25T15:18:44.574Z,2.50
2023-02-25T15:21:41.330Z,1.88
2023-02-25T15:24:41.307Z,2.45
2023-02-25T15:27:43.581Z,2.20
2023-02-25T15:30:14.807Z,2.22
2023-02-25T15:33:07.205Z,2.03
2023-02-25T15:36:00.869Z,2.03
2023-02-25T15:38:48.735Z,1.92
2023-02-25T15:41:54.806Z,1.80
2023-02-25T15:44:43.068Z,2.63
2023-02-25T15:47:35.689Z,2.13
2023-02-25T15:50:04.868Z,2.03
2023-02-25T15:52:59.154Z,1.70
2023-02-25T15:55:46.202Z,2.63
2023-02-25T15:58:53.702Z,1.83
2023-02-25T16:01:43.128Z,1.63
2023-02-25T16:04:48.860Z,2.20
2023-02-25T16:07:21.520Z,2.28
2023-02-25T16:09:57.104Z,1.60
2023-02-25T16:12:26.271Z,1.80
2023-02-25T16:14:58.035Z,2.50
2023-02-25T16:17:32.464Z,1.73
2023-02-25T16:20:11.977Z,1.90
2023-02-25T16:22:48.306Z,2.00
2023-02-25T16:25:27.444Z,2.10
2023-02-25T16:28:04.517Z,2.30
2023-02-25T16:30:41.564Z,2.22
2023-02-25T16:33:21.631Z,2.20
2023-02-25T16:36:07.389Z,2.17
2023-02-25T16:38:47.778Z,1.92
2023-02-25T16:41:17.149Z,2.47
2023-02-25T16:43:46.422Z,1.85
2023-02-25T16:46:22.939Z,1.83
2023-02-25T16:48:56.678Z,1.85
2023-02-25T16:51:28.412Z,2.50
2023-02-25T16:54:03.413Z,1.88
2023-02-25T16:56:35.242Z,1.60
2023-02-25T16:59:18.406Z,1.90
2023-02-25T17:02:00.306Z,1.83
2023-02-25T17:04:32.768Z,1.77
2023-02-25T17:07:12.488Z,1.75
2023-02-25T17:09:50.162Z,2.20
2023-02-25T17:12:27.888Z,1.40
2023-02-25T17:14:57.200Z,2.75
2023-02-25T17:17:33.028Z,2.15
2023-02-25T17:20:05.267Z,2.20
2023-02-25T17:22:35.312Z,1.88
2023-02-25T17:25:06.073Z,2.28
2023-02-25T17:27:35.235Z,2.17
2023-02-25T17:30:03.585Z,1.80
2023-02-25T17:32:33.271Z,2.30
2023-02-25T17:35:04.968Z,1.98
2023-02-25T17:37:40.360Z,2.15
2023-02-25T17:40:10.821Z,2.38
2023-02-25T17:42:40.055Z,2.60
2023-02-25T17:45:44.332Z,2.03
2023-02-25T17:48:20.707Z,2.78
2023-02-25T17:50:57.919Z,2.35
2023-02-25T17:53:44.831Z,2.10
2023-02-25T17:56:24.767Z,2.25
2023-02-25T17:58:54.930Z,2.70
2023-02-25T18:01:31.833Z,2.55
2023-02-25T18:04:06.629Z,1.83
2023-02-25T18:06:45.189Z,2.45
2023-02-25T18:09:39.985Z,2.97
2023-02-25T18:12:18.461Z,3.00
2023-02-25T18:14:48.019Z,3.05
2023-02-25T18:17:29.240Z,2.08
2023-02-25T18:20:00.627Z,2.45
2023-02-25T18:22:35.066Z,2.78
2023-02-25T18:25:22.940Z,2.72
2023-02-25T18:27:55.378Z,2.63
2023-02-25T18:30:27.047Z,2.83
2023-02-25T18:32:59.189Z,3.03
2023-02-25T18:35:30.269Z,3.22
2023-02-25T18:38:00.774Z,4.13
2023-02-25T18:40:32.232Z,3.95
2023-02-25T18:43:01.264Z,5.70
2023-02-25T18:45:32.400Z,8.35
2023-02-25T18:48:02.031Z,6.68
2023-02-25T18:50:32.180Z,4.85
2023-02-25T18:53:00.981Z,5.07
2023-02-25T18:55:32.713Z,5.43
2023-02-25T18:58:02.279Z,4.85
2023-02-25T19:00:30.739Z,5.70
2023-02-25T19:03:03.726Z,6.10
2023-02-25T19:05:32.437Z,5.20
2023-02-25T19:08:00.947Z,4.80
2023-02-25T19:10:31.604Z,5.18
2023-02-25T19:13:04.605Z,7.85
2023-02-25T19:15:33.736Z,7.03
2023-02-25T19:18:03.335Z,8.70
2023-02-25T19:20:31.869Z,8.00
2023-02-25T19:23:00.240Z,6.95
2023-02-25T19:25:32.360Z,4.80
2023-02-25T19:28:00.652Z,5.68
2023-02-25T19:30:32.060Z,5.53
2023-02-25T19:33:04.622Z,6.13
2023-02-25T19:35:36.474Z,5.25
2023-02-25T19:38:06.285Z,6.35
2023-02-25T19:40:38.296Z,6.28
2023-02-25T19:43:09.256Z,4.07
2023-02-25T19:45:37.526Z,4.10
2023-02-25T19:48:07.348Z,4.00
2023-02-25T19:50:37.046Z,4.65
2023-02-25T19:53:06.734Z,4.22
2023-02-25T19:55:35.920Z,4.13
2023-02-25T19:58:06.264Z,3.45
2023-02-25T20:00:34.565Z,4.07
2023-02-25T20:03:02.796Z,3.67
2023-02-25T20:05:32.427Z,3.78
2023-02-25T20:08:00.776Z,4.78
2023-02-25T20:10:29.015Z,5.38
2023-02-25T20:12:57.255Z,4.57
2023-02-25T20:15:25.694Z,3.72
2023-02-25T20:17:55.094Z,4.57
2023-02-25T20:20:23.875Z,4.82
2023-02-25T20:22:53.850Z,4.55
2023-02-25T20:25:22.301Z,5.00
2023-02-25T20:27:50.569Z,5.60
2023-02-25T20:30:19.851Z,6.18
2023-02-25T20:32:48.184Z,6.40
2023-02-25T20:35:21.140Z,6.35
2023-02-25T20:38:12.553Z,5.93
2023-02-25T20:40:41.047Z,6.53
2023-02-25T20:43:11.612Z,8.70
2023-02-25T20:45:40.998Z,7.75
2023-02-25T20:48:24.699Z,5.97
2023-02-25T20:50:54.039Z,5.40
2023-02-25T20:53:25.139Z,5.63
2023-02-25T20:55:57.429Z,5.60
2023-02-25T20:58:25.669Z,5.95
2023-02-25T21:00:54.031Z,6.03
2023-02-25T21:03:22.339Z,6.68
2023-02-25T21:05:50.633Z,6.80
2023-02-25T21:08:18.970Z,7.72
2023-02-25T21:10:48.623Z,7.10
2023-02-25T21:13:16.897Z,7.03
2023-02-25T21:15:45.588Z,6.65
2023-02-25T21:18:29.899Z,7.15
2023-02-25T21:20:59.736Z,7.95
2023-02-25T21:23:28.430Z,7.93
2023-02-25T21:25:58.884Z,7.43
2023-02-25T21:28:28.287Z,6.88
2023-02-25T21:31:05.608Z,6.20
2023-02-25T21:33:34.187Z,6.18
2023-02-25T21:36:06.661Z,6.55
2023-02-25T21:38:35.776Z,6.95
2023-02-25T21:41:13.176Z,6.05
2023-02-25T21:43:42.902Z,6.07
2023-02-25T21:46:13.784Z,5.47
2023-02-25T21:48:43.752Z,5.03
2023-02-25T21:51:17.879Z,4.30
2023-02-25T21:53:46.423Z,5.15
2023-02-25T21:56:18.214Z,4.75
2023-02-25T21:58:47.267Z,4.43
2023-02-25T22:01:19.167Z,5.03
2023-02-25T22:03:48.395Z,5.25
2023-02-25T22:06:17.224Z,4.80
2023-02-25T22:08:48.879Z,4.63
2023-02-25T22:11:23.652Z,4.68
2023-02-25T22:13:52.718Z,4.22
2023-02-25T22:16:23.164Z,4.60
2023-02-25T22:18:52.433Z,4.35
2023-02-25T22:21:23.417Z,3.75
2023-02-25T22:23:53.958Z,4.05
2023-02-25T22:26:27.598Z,4.85
2023-02-25T22:29:00.200Z,3.97
2023-02-25T22:31:29.494Z,4.20
2023-02-25T22:33:58.597Z,3.80
2023-02-25T22:36:27.345Z,3.55
2023-02-25T22:38:56.493Z,4.10
2023-02-25T22:41:28.215Z,3.28
2023-02-25T22:43:58.435Z,3.78
2023-02-25T22:46:33.472Z,3.63
2023-02-25T22:49:01.756Z,3.50
2023-02-25T22:51:32.745Z,4.00
2023-02-25T22:54:01.434Z,3.35
2023-02-25T22:56:31.233Z,3.88
2023-02-25T22:58:59.588Z,3.80
2023-02-25T23:01:28.339Z,3.90
2023-02-25T23:03:57.635Z,3.95
2023-02-25T23:06:42.336Z,3.95
2023-02-25T23:09:12.644Z,3.90
2023-02-25T23:11:44.036Z,5.35
2023-02-25T23:14:13.042Z,4.68
2023-02-25T23:16:44.748Z,4.13
2023-02-25T23:19:17.061Z,4.45
2023-02-25T23:21:45.992Z,4.43
2023-02-25T23:24:18.456Z,4.30
2023-02-25T23:26:50.629Z,4.20
2023-02-25T23:29:19.566Z,4.13
2023-02-25T23:31:49.733Z,3.42
2023-02-25T23:34:22.939Z,3.97
2023-02-25T23:36:51.768Z,4.10
2023-02-25T23:39:20.227Z,3.83
2023-02-25T23:41:50.287Z,3.90
2023-02-25T23:44:18.825Z,4.25
2023-02-25T23:46:47.434Z,4.45
2023-02-25T23:49:17.871Z,3.92
2023-02-25T23:51:48.398Z,3.40
2023-02-25T23:54:19.746Z,3.70
2023-02-25T23:56:49.894Z,3.53
2023-02-25T23:59:21.145Z,3.33
